Bernard A — TCWN3 — position and weather

sailwx.info

Track history (hours):
 
Tides and Currents Weather Stations Pressure Air Temp Water Temp Dewpoint Dewpoint Depression Visibility Wind Speed Wind Dir Waves Ship Positions

Bernard A

Last reported at 2015-Aug-23 00:08 UTC. Time now 2015-Aug-30 07:55 UTC.
Position N 41°02' E 028°60'.

Length 184 m; draft 8.3 m.

Type: Ship (hazmat cat A). MMSI: 271040008.

Date/timePositionNaut miles runAvg speedWind from/ knotsBaromVisibWave heightAir tempDewpointWater temp
2015-Aug-23 00:08N 41°02' E 028°60'711.1
2015-Aug-22 23:32N 40°55' E 028°59'7 7.1
2015-Aug-22 22:33N 40°48' E 028°57'1 1.0
2015-Aug-22 21:33N 40°49' E 028°58'1 0.9
2015-Aug-22 20:33N 40°50' E 028°58'0 0.2
2015-Aug-22 19:33N 40°50' E 028°58'1212.3
2015-Aug-22 18:33N 40°55' E 028°43'4 3.2
2015-Aug-22 17:23N 40°58' E 028°41'0 0.0
2015-Aug-22 15:23N 40°58' E 028°41'0 0.0
2015-Aug-22 14:23N 40°58' E 028°41'0 0.0
2015-Aug-22 13:29N 40°58' E 028°41'0 0.0
2015-Aug-22 12:29N 40°58' E 028°41'0 0.0
2015-Aug-22 11:29N 40°58' E 028°41'0 0.0
2015-Aug-22 10:29N 40°58' E 028°41'0 0.0
2015-Aug-22 09:29N 40°58' E 028°41'0 0.0
2015-Aug-22 07:05N 40°58' E 028°41'0 0.0
2015-Aug-22 06:30N 40°58' E 028°41'1 0.0
2015-Aug-21 14:05N 40°57' E 028°40'2 1.4
2015-Aug-21 12:32N 40°56' E 028°42'35 5.9
2015-Aug-21 06:31N 40°25' E 029°05'0 0.0
2015-Aug-21 05:25N 40°25' E 029°05'0 0.0
2015-Aug-21 04:25N 40°25' E 029°05'0 0.0
2015-Aug-21 03:31N 40°25' E 029°05'0 0.0
2015-Aug-21 02:31N 40°25' E 029°05'0 0.0
2015-Aug-21 01:19N 40°25' E 029°05'0 0.0
2015-Aug-21 00:31N 40°25' E 029°05'0 0.0
2015-Aug-20 23:25N 40°25' E 029°05'0 0.0
2015-Aug-20 22:31N 40°25' E 029°05'0 0.0
2015-Aug-20 21:13N 40°25' E 029°05'0 0.0
2015-Aug-20 20:31N 40°25' E 029°05'0 0.0
2015-Aug-20 18:31N 40°25' E 029°05'0 0.0
2015-Aug-20 17:19N 40°25' E 029°05'0 0.0
2015-Aug-20 16:31N 40°25' E 029°05'0 0.0
2015-Aug-20 15:19N 40°25' E 029°05'0 0.0
2015-Aug-20 14:12N 40°25' E 029°05'1710.0
2015-Aug-20 12:31N 40°32' E 028°45'1414.2
2015-Aug-20 11:33N 40°45' E 028°41'12 0.3
2015-Aug-19 00:11N 40°57' E 028°38'  
2015-Aug-14 13:33N 43°22' E 034°14'1917.6
2015-Aug-14 12:28N 43°17' E 034°40'1617.8
2015-Aug-14 11:32N 43°14' E 035°02'1717.7
2015-Aug-14 10:33N 43°11' E 035°26'1513.6
2015-Aug-14 09:29N 43°09' E 035°45'2713.7
2015-Aug-14 07:29N 43°03' E 036°22'1313.5
2015-Aug-14 06:33N 43°01' E 036°39'4113.5
2015-Aug-14 03:33N 42°55' E 037°34'1413.7
2015-Aug-14 02:33N 42°53' E 037°52'  
Track history (hours):
 
Tides and Currents Weather Stations Pressure Air Temp Water Temp Dewpoint Dewpoint Depression Visibility Wind Speed Wind Dir Waves Ship Positions

Bernard A

Last reported at 2015-Aug-23 00:08 UTC. Time now 2015-Aug-30 07:55 UTC.
Position N 41°02' E 028°60'.

Length 184 m; draft 8.3 m.

Type: Ship (hazmat cat A). MMSI: 271040008.

Date/timePositionNaut miles runAvg speedWind from/ knotsBaromVisibWave heightAir tempDewpointWater temp
2015-Aug-23 00:08N 41°02' E 028°60'711.1
2015-Aug-22 23:32N 40°55' E 028°59'7 7.1
2015-Aug-22 22:33N 40°48' E 028°57'1 1.0
2015-Aug-22 21:33N 40°49' E 028°58'1 0.9
2015-Aug-22 20:33N 40°50' E 028°58'0 0.2
2015-Aug-22 19:33N 40°50' E 028°58'1212.3
2015-Aug-22 18:33N 40°55' E 028°43'4 3.2
2015-Aug-22 17:23N 40°58' E 028°41'0 0.0
2015-Aug-22 15:23N 40°58' E 028°41'0 0.0
2015-Aug-22 14:23N 40°58' E 028°41'0 0.0
2015-Aug-22 13:29N 40°58' E 028°41'0 0.0
2015-Aug-22 12:29N 40°58' E 028°41'0 0.0
2015-Aug-22 11:29N 40°58' E 028°41'0 0.0
2015-Aug-22 10:29N 40°58' E 028°41'0 0.0
2015-Aug-22 09:29N 40°58' E 028°41'0 0.0
2015-Aug-22 07:05N 40°58' E 028°41'0 0.0
2015-Aug-22 06:30N 40°58' E 028°41'1 0.0
2015-Aug-21 14:05N 40°57' E 028°40'2 1.4
2015-Aug-21 12:32N 40°56' E 028°42'35 5.9
2015-Aug-21 06:31N 40°25' E 029°05'0 0.0
2015-Aug-21 05:25N 40°25' E 029°05'0 0.0
2015-Aug-21 04:25N 40°25' E 029°05'0 0.0
2015-Aug-21 03:31N 40°25' E 029°05'0 0.0
2015-Aug-21 02:31N 40°25' E 029°05'0 0.0
2015-Aug-21 01:19N 40°25' E 029°05'0 0.0
2015-Aug-21 00:31N 40°25' E 029°05'0 0.0
2015-Aug-20 23:25N 40°25' E 029°05'0 0.0
2015-Aug-20 22:31N 40°25' E 029°05'0 0.0
2015-Aug-20 21:13N 40°25' E 029°05'0 0.0
2015-Aug-20 20:31N 40°25' E 029°05'0 0.0
2015-Aug-20 18:31N 40°25' E 029°05'0 0.0
2015-Aug-20 17:19N 40°25' E 029°05'0 0.0
2015-Aug-20 16:31N 40°25' E 029°05'0 0.0
2015-Aug-20 15:19N 40°25' E 029°05'0 0.0
2015-Aug-20 14:12N 40°25' E 029°05'1710.0
2015-Aug-20 12:31N 40°32' E 028°45'1414.2
2015-Aug-20 11:33N 40°45' E 028°41'12 0.3
2015-Aug-19 00:11N 40°57' E 028°38'  
2015-Aug-14 13:33N 43°22' E 034°14'1917.6
2015-Aug-14 12:28N 43°17' E 034°40'1617.8
2015-Aug-14 11:32N 43°14' E 035°02'1717.7
2015-Aug-14 10:33N 43°11' E 035°26'1513.6
2015-Aug-14 09:29N 43°09' E 035°45'2713.7
2015-Aug-14 07:29N 43°03' E 036°22'1313.5
2015-Aug-14 06:33N 43°01' E 036°39'4113.5
2015-Aug-14 03:33N 42°55' E 037°34'1413.7
2015-Aug-14 02:33N 42°53' E 037°52'  

Dump ship's entire track history